Time;durP1;ratioP1;P1;durP2;ratioP2;P2;SDS_P1;SDS_P2;PMS_P1;PMS_P2;Temp;Humidity;BMP_temperature;BMP_pressure;BME280_temperature;BME280_humidity;BME280_pressure;Samples;Min_cycle;Max_cycle;Signal;HPM_P1;HPM_P2
2022/01/02 00:01:24;;;;;;;9.32;4.10;;;;;;;;;;5092072;28;20006;-77
2022/01/02 00:03:54;;;;;;;9.90;4.60;;;;;;;;;;5075835;28;20044;-77
2022/01/02 00:06:24;;;;;;;9.03;4.73;;;;;;;;;;5074258;28;20048;-77
2022/01/02 00:08:53;;;;;;;9.05;4.95;;;;;;;;;;5074564;28;20471;-77
2022/01/02 00:11:21;;;;;;;8.57;4.97;;;;;;;;;;5075672;28;20059;-78
2022/01/02 00:13:47;;;;;;;9.05;4.65;;;;;;;;;;5058122;28;20053;-77
2022/01/02 00:16:17;;;;;;;8.93;4.60;;;;;;;;;;5073995;28;20036;-77
2022/01/02 00:18:51;;;;;;;10.60;4.47;;;;;;;;;;5091603;28;20051;-77
2022/01/02 00:21:17;;;;;;;8.48;4.75;;;;;;;;;;5073953;28;20032;-77
2022/01/02 00:23:59;;;;;;;9.30;4.97;;;;;;;;;;5075039;28;20036;-77
2022/01/02 00:26:34;;;;;;;7.82;4.45;;;;;;;;;;5076080;28;20081;-77
2022/01/02 00:29:02;;;;;;;7.95;4.53;;;;;;;;;;5075766;28;20453;-74
2022/01/02 00:31:28;;;;;;;9.75;4.85;;;;;;;;;;5075110;28;20456;-77
2022/01/02 00:33:54;;;;;;;9.75;4.63;;;;;;;;;;5074192;28;20059;-76
2022/01/02 00:36:20;;;;;;;8.90;4.75;;;;;;;;;;5075250;28;20040;-77
2022/01/02 00:38:46;;;;;;;10.00;4.55;;;;;;;;;;5074893;28;20106;-77
2022/01/02 00:41:13;;;;;;;8.07;4.35;;;;;;;;;;5074601;28;20047;-76
2022/01/02 00:43:42;;;;;;;8.65;4.63;;;;;;;;;;5076390;28;20032;-75
2022/01/02 00:46:10;;;;;;;9.60;4.53;;;;;;;;;;5075314;28;20040;-75
2022/01/02 00:48:39;;;;;;;7.72;4.45;;;;;;;;;;5073682;28;20040;-76
2022/01/02 00:51:09;;;;;;;12.45;4.75;;;;;;;;;;5075536;28;20042;-76
2022/01/02 00:53:37;;;;;;;12.57;5.32;;;;;;;;;;5076035;28;20048;-76
2022/01/02 00:56:03;;;;;;;9.52;5.03;;;;;;;;;;5074292;28;20071;-75
2022/01/02 00:58:39;;;;;;;8.65;4.97;;;;;;;;;;5075158;28;20048;-76
2022/01/02 01:01:07;;;;;;;10.15;4.97;;;;;;;;;;5083839;28;20032;-76
2022/01/02 01:03:34;;;;;;;11.48;4.90;;;;;;;;;;5059881;28;20083;-78
2022/01/02 01:06:04;;;;;;;8.90;4.85;;;;;;;;;;5079473;28;20055;-77
2022/01/02 01:08:31;;;;;;;13.67;5.00;;;;;;;;;;5078622;28;20040;-76
2022/01/02 01:10:59;;;;;;;11.15;5.00;;;;;;;;;;5076849;28;20048;-76
2022/01/02 01:13:25;;;;;;;10.02;5.18;;;;;;;;;;5078307;28;20047;-78
2022/01/02 01:15:51;;;;;;;12.38;4.93;;;;;;;;;;5078821;28;20041;-77
2022/01/02 01:18:17;;;;;;;12.82;5.65;;;;;;;;;;5077111;28;20087;-78
2022/01/02 01:20:44;;;;;;;12.77;5.55;;;;;;;;;;5079132;28;20040;-77
2022/01/02 01:23:15;;;;;;;10.15;4.90;;;;;;;;;;5078858;28;20114;-76
2022/01/02 01:25:44;;;;;;;13.00;5.65;;;;;;;;;;5079838;28;20040;-77
2022/01/02 01:28:10;;;;;;;14.85;5.30;;;;;;;;;;5077857;28;20036;-78
2022/01/02 01:30:36;;;;;;;14.38;4.68;;;;;;;;;;5079365;28;20040;-79
2022/01/02 01:33:02;;;;;;;11.15;5.38;;;;;;;;;;5077080;28;20043;-77
2022/01/02 01:35:28;;;;;;;9.73;4.63;;;;;;;;;;5078735;28;20036;-80
2022/01/02 01:37:54;;;;;;;8.75;4.80;;;;;;;;;;5078524;28;20090;-78
2022/01/02 01:40:20;;;;;;;15.68;5.85;;;;;;;;;;5079369;28;20094;-77
2022/01/02 01:42:59;;;;;;;8.38;4.43;;;;;;;;;;5077658;28;20036;-77
2022/01/02 01:47:52;;;;;;;12.63;4.82;;;;;;;;;;5094752;28;20049;-76
2022/01/02 01:50:19;;;;;;;10.55;5.18;;;;;;;;;;5076866;28;20068;-76
2022/01/02 01:52:46;;;;;;;10.68;5.38;;;;;;;;;;5078333;28;20051;-76
2022/01/02 01:55:12;;;;;;;9.45;4.90;;;;;;;;;;5078069;28;20475;-76
2022/01/02 01:57:41;;;;;;;11.45;5.25;;;;;;;;;;5076384;28;20157;-75
2022/01/02 02:00:09;;;;;;;10.05;4.85;;;;;;;;;;5077235;28;20043;-76
2022/01/02 02:02:36;;;;;;;15.40;5.75;;;;;;;;;;5078613;28;20044;-76
2022/01/02 02:05:03;;;;;;;16.70;5.65;;;;;;;;;;5080050;28;20081;-76
2022/01/02 02:07:38;;;;;;;12.57;5.45;;;;;;;;;;5078500;28;20039;-78
2022/01/02 02:10:16;;;;;;;12.38;5.50;;;;;;;;;;5078253;28;20044;-75
2022/01/02 02:12:43;;;;;;;11.13;5.75;;;;;;;;;;5077830;28;20048;-76
2022/01/02 02:15:10;;;;;;;11.73;5.60;;;;;;;;;;5077046;28;20567;-76
2022/01/02 02:17:37;;;;;;;12.00;5.93;;;;;;;;;;5074879;28;20489;-76
2022/01/02 02:20:23;;;;;;;13.88;5.70;;;;;;;;;;5078007;28;20059;-77
2022/01/02 02:22:52;;;;;;;12.55;7.03;;;;;;;;;;5093908;28;20412;-78
2022/01/02 02:25:19;;;;;;;12.52;5.85;;;;;;;;;;5075675;28;20143;-77
2022/01/02 02:27:56;;;;;;;12.70;6.75;;;;;;;;;;5077492;28;20047;-76
2022/01/02 02:30:23;;;;;;;11.95;5.15;;;;;;;;;;5077834;28;20043;-76
2022/01/02 02:32:49;;;;;;;11.95;5.18;;;;;;;;;;5076927;28;20048;-76
2022/01/02 02:35:15;;;;;;;11.35;6.13;;;;;;;;;;5078809;28;20028;-78
2022/01/02 02:37:42;;;;;;;10.20;4.93;;;;;;;;;;5077503;28;20040;-77
2022/01/02 02:40:10;;;;;;;15.82;5.40;;;;;;;;;;5076239;28;20044;-77
2022/01/02 02:42:46;;;;;;;13.75;5.75;;;;;;;;;;5075070;28;20641;-76
2022/01/02 02:51:29;;;;;;;13.70;5.63;;;;;;;;;;4997952;28;20513;-78
2022/01/02 02:53:55;;;;;;;10.50;5.20;;;;;;;;;;5074015;28;20060;-77
2022/01/02 02:58:49;;;;;;;15.00;6.75;;;;;;;;;;5094897;28;20146;-78
2022/01/02 03:01:17;;;;;;;15.43;6.25;;;;;;;;;;5080728;28;20039;-78
2022/01/02 03:03:43;;;;;;;13.90;5.53;;;;;;;;;;5080676;28;20028;-77
2022/01/02 03:06:10;;;;;;;16.85;5.97;;;;;;;;;;5078901;28;20047;-76
2022/01/02 03:08:37;;;;;;;10.95;5.63;;;;;;;;;;5078346;28;20040;-77
2022/01/02 03:11:03;;;;;;;19.00;6.78;;;;;;;;;;5080518;28;20047;-77
2022/01/02 03:13:29;;;;;;;16.52;7.18;;;;;;;;;;5079605;28;20047;-78
2022/01/02 03:15:55;;;;;;;15.55;6.75;;;;;;;;;;5078327;28;20044;-78
2022/01/02 03:18:21;;;;;;;10.68;6.28;;;;;;;;;;5079474;28;20036;-77
2022/01/02 03:20:47;;;;;;;9.52;5.75;;;;;;;;;;5070410;28;20076;-75
2022/01/02 03:23:13;;;;;;;15.15;6.53;;;;;;;;;;5070790;28;20105;-77
2022/01/02 03:25:39;;;;;;;14.18;6.53;;;;;;;;;;5070687;28;20044;-77
2022/01/02 03:28:05;;;;;;;19.30;8.45;;;;;;;;;;5070264;28;20032;-77
2022/01/02 03:30:31;;;;;;;17.40;7.20;;;;;;;;;;5070481;28;20041;-77
2022/01/02 03:32:57;;;;;;;12.65;7.22;;;;;;;;;;5070434;28;20135;-76
2022/01/02 03:35:23;;;;;;;10.82;6.55;;;;;;;;;;5096833;28;20036;-77
2022/01/02 03:37:50;;;;;;;14.57;6.40;;;;;;;;;;5093787;28;20559;-76
2022/01/02 03:40:16;;;;;;;15.63;6.20;;;;;;;;;;5110712;28;20131;-78
2022/01/02 03:42:42;;;;;;;14.05;7.00;;;;;;;;;;5093547;28;20503;-78
2022/01/02 03:45:09;;;;;;;10.55;6.40;;;;;;;;;;5093846;28;20043;-77
2022/01/02 03:47:35;;;;;;;14.88;7.07;;;;;;;;;;5111239;28;20049;-77
2022/01/02 03:50:03;;;;;;;14.02;6.50;;;;;;;;;;5110992;28;20039;-77
2022/01/02 03:52:29;;;;;;;15.35;6.68;;;;;;;;;;5111051;28;20093;-77
2022/01/02 03:54:55;;;;;;;15.77;6.30;;;;;;;;;;5110646;28;20039;-78
2022/01/02 03:57:21;;;;;;;14.30;6.60;;;;;;;;;;5093844;28;20139;-77
2022/01/02 03:59:47;;;;;;;20.58;7.85;;;;;;;;;;5093617;28;20407;-77
2022/01/02 04:02:13;;;;;;;14.73;6.25;;;;;;;;;;5093623;28;20460;-79
2022/01/02 04:04:39;;;;;;;15.88;6.03;;;;;;;;;;5084700;28;20036;-78
2022/01/02 04:07:05;;;;;;;14.98;6.32;;;;;;;;;;5073412;28;20383;-76
2022/01/02 04:09:31;;;;;;;15.90;6.82;;;;;;;;;;5073405;28;20036;-77
2022/01/02 04:11:57;;;;;;;13.80;5.78;;;;;;;;;;5073227;28;20400;-78
2022/01/02 04:14:23;;;;;;;12.90;6.25;;;;;;;;;;5090573;28;20098;-78
2022/01/02 04:16:49;;;;;;;11.10;5.25;;;;;;;;;;5073754;28;20052;-76
2022/01/02 04:19:15;;;;;;;11.38;4.93;;;;;;;;;;5073708;28;20044;-77
2022/01/02 04:21:41;;;;;;;10.27;5.07;;;;;;;;;;5090390;28;20117;-75
2022/01/02 04:24:07;;;;;;;15.77;5.50;;;;;;;;;;5073597;28;20052;-76
2022/01/02 04:26:33;;;;;;;13.10;5.57;;;;;;;;;;5090464;28;20449;-78
2022/01/02 04:28:59;;;;;;;15.38;5.45;;;;;;;;;;5090096;28;20082;-76
2022/01/02 04:31:25;;;;;;;10.48;5.13;;;;;;;;;;5073136;28;20066;-75
2022/01/02 04:33:51;;;;;;;9.02;4.38;;;;;;;;;;5089484;28;20040;-76
2022/01/02 04:36:17;;;;;;;15.68;5.22;;;;;;;;;;5109697;28;20031;-76
2022/01/02 04:38:45;;;;;;;10.82;5.30;;;;;;;;;;5110371;28;20048;-76
2022/01/02 04:41:11;;;;;;;15.63;5.35;;;;;;;;;;5095912;28;20039;-76
2022/01/02 04:43:37;;;;;;;14.15;4.97;;;;;;;;;;5096798;28;20073;-76
2022/01/02 04:46:04;;;;;;;15.93;5.55;;;;;;;;;;5113899;28;20039;-77
2022/01/02 04:48:30;;;;;;;13.93;5.63;;;;;;;;;;5113772;28;20040;-77
2022/01/02 04:50:56;;;;;;;11.93;5.15;;;;;;;;;;5114141;28;20053;-76
2022/01/02 04:53:22;;;;;;;14.65;6.45;;;;;;;;;;5096611;28;20075;-76
2022/01/02 04:55:49;;;;;;;11.15;4.97;;;;;;;;;;5096744;28;20035;-76
2022/01/02 04:58:15;;;;;;;16.30;5.13;;;;;;;;;;5113657;28;20043;-74
2022/01/02 05:00:41;;;;;;;16.50;5.63;;;;;;;;;;5113769;28;20047;-76
2022/01/02 05:03:07;;;;;;;12.38;5.00;;;;;;;;;;5113728;28;20065;-78
2022/01/02 05:05:33;;;;;;;13.90;4.30;;;;;;;;;;5113986;28;20092;-78
2022/01/02 05:07:59;;;;;;;18.23;5.22;;;;;;;;;;5096776;28;20510;-75
2022/01/02 05:10:25;;;;;;;11.18;4.50;;;;;;;;;;5113159;28;20056;-76
2022/01/02 05:12:51;;;;;;;12.68;4.65;;;;;;;;;;5113529;28;20055;-76
2022/01/02 05:15:18;;;;;;;15.77;4.72;;;;;;;;;;5096843;28;20047;-75
2022/01/02 05:17:44;;;;;;;10.75;4.65;;;;;;;;;;5113252;28;20079;-77
2022/01/02 05:20:10;;;;;;;11.30;4.70;;;;;;;;;;5096223;28;20035;-76
2022/01/02 05:22:36;;;;;;;9.68;4.10;;;;;;;;;;5096347;28;20031;-79
2022/01/02 05:25:03;;;;;;;9.18;4.38;;;;;;;;;;5096363;28;20047;-76
2022/01/02 05:27:29;;;;;;;9.65;3.72;;;;;;;;;;5113275;28;20079;-76
2022/01/02 05:29:55;;;;;;;11.23;3.40;;;;;;;;;;5112938;28;20093;-76
2022/01/02 05:32:21;;;;;;;12.68;3.80;;;;;;;;;;5095995;28;20093;-75
2022/01/02 05:34:47;;;;;;;14.38;5.13;;;;;;;;;;5095947;28;20046;-77
2022/01/02 05:37:13;;;;;;;12.15;4.22;;;;;;;;;;5113065;28;20444;-75
2022/01/02 05:39:39;;;;;;;10.73;4.18;;;;;;;;;;5112701;28;20372;-76
2022/01/02 05:42:05;;;;;;;9.30;3.72;;;;;;;;;;5095720;28;20473;-77
2022/01/02 05:44:31;;;;;;;14.20;4.43;;;;;;;;;;5112576;28;20126;-78
2022/01/02 05:46:57;;;;;;;11.68;4.03;;;;;;;;;;5113033;28;20172;-75
2022/01/02 05:49:23;;;;;;;11.05;4.72;;;;;;;;;;5112892;28;20087;-76
2022/01/02 05:51:49;;;;;;;13.57;3.97;;;;;;;;;;5095538;28;20506;-76
2022/01/02 05:54:16;;;;;;;8.32;3.65;;;;;;;;;;5112420;28;20032;-77
2022/01/02 05:56:42;;;;;;;11.38;4.32;;;;;;;;;;5095389;28;20427;-77
2022/01/02 05:59:08;;;;;;;12.63;4.18;;;;;;;;;;5095521;28;20039;-76
2022/01/02 06:01:34;;;;;;;12.20;4.93;;;;;;;;;;5095398;28;20028;-77
2022/01/02 06:04:00;;;;;;;9.40;3.83;;;;;;;;;;5095480;28;20036;-77
2022/01/02 06:06:26;;;;;;;12.02;3.97;;;;;;;;;;5095419;28;20043;-77
2022/01/02 06:08:52;;;;;;;11.82;3.88;;;;;;;;;;5112308;28;20051;-76
2022/01/02 06:11:19;;;;;;;9.35;3.47;;;;;;;;;;5112267;28;20093;-74
2022/01/02 06:13:45;;;;;;;9.43;3.42;;;;;;;;;;5112125;28;20506;-77
2022/01/02 06:16:11;;;;;;;10.45;3.45;;;;;;;;;;5095137;28;20051;-77
2022/01/02 06:18:37;;;;;;;16.67;4.80;;;;;;;;;;5112420;28;20032;-76
2022/01/02 06:21:03;;;;;;;9.75;4.15;;;;;;;;;;5095302;28;20051;-78
2022/01/02 06:23:29;;;;;;;9.57;4.15;;;;;;;;;;5112317;28;20451;-78
2022/01/02 06:25:55;;;;;;;8.73;3.50;;;;;;;;;;5112156;28;20107;-77
2022/01/02 06:28:21;;;;;;;9.18;3.78;;;;;;;;;;5094782;28;20036;-76
2022/01/02 06:30:47;;;;;;;10.90;3.90;;;;;;;;;;5095183;28;20104;-77
2022/01/02 06:33:13;;;;;;;9.50;4.30;;;;;;;;;;5095197;28;20395;-77
2022/01/02 06:35:39;;;;;;;9.27;3.40;;;;;;;;;;5094534;28;20047;-76
2022/01/02 06:38:12;;;;;;;8.00;3.80;;;;;;;;;;5111779;28;20082;-76
2022/01/02 06:40:38;;;;;;;10.70;3.80;;;;;;;;;;5111767;28;20499;-77
2022/01/02 06:43:04;;;;;;;9.30;3.28;;;;;;;;;;5112008;28;20034;-77
2022/01/02 06:45:30;;;;;;;9.07;3.90;;;;;;;;;;5094974;28;20039;-77
2022/01/02 06:47:56;;;;;;;14.93;4.50;;;;;;;;;;5094887;28;20407;-74
2022/01/02 06:50:22;;;;;;;10.20;3.40;;;;;;;;;;5094745;28;20071;-76
2022/01/02 06:52:48;;;;;;;8.00;2.88;;;;;;;;;;5095043;28;20081;-76
2022/01/02 06:55:14;;;;;;;5.22;3.17;;;;;;;;;;5111663;28;20139;-76
2022/01/02 06:57:40;;;;;;;11.45;3.28;;;;;;;;;;5094593;28;20039;-76
2022/01/02 07:00:06;;;;;;;8.30;2.97;;;;;;;;;;5085486;28;20044;-75
2022/01/02 07:02:33;;;;;;;9.43;3.25;;;;;;;;;;5090566;28;20036;-76
2022/01/02 07:04:59;;;;;;;9.57;3.25;;;;;;;;;;5091161;28;20036;-78
2022/01/02 07:07:25;;;;;;;6.30;2.70;;;;;;;;;;5074318;28;20040;-76
2022/01/02 07:09:51;;;;;;;11.93;3.22;;;;;;;;;;5074398;28;20126;-77
2022/01/02 07:12:17;;;;;;;10.50;2.65;;;;;;;;;;5074278;28;20044;-76
2022/01/02 07:14:43;;;;;;;9.45;3.80;;;;;;;;;;5090986;28;20077;-76
2022/01/02 07:17:09;;;;;;;9.13;3.40;;;;;;;;;;5107149;28;20039;-77
2022/01/02 07:19:35;;;;;;;10.75;3.20;;;;;;;;;;5111436;28;20046;-76
2022/01/02 07:22:01;;;;;;;8.52;3.33;;;;;;;;;;5094398;28;20395;-76
2022/01/02 07:24:27;;;;;;;5.60;2.70;;;;;;;;;;5094125;28;20035;-76
2022/01/02 07:26:54;;;;;;;8.32;2.85;;;;;;;;;;5093973;28;20044;-76
2022/01/02 07:29:20;;;;;;;11.05;4.38;;;;;;;;;;5094261;28;20066;-76
2022/01/02 07:31:46;;;;;;;7.50;3.00;;;;;;;;;;5094359;28;20043;-76
2022/01/02 07:34:12;;;;;;;8.00;3.15;;;;;;;;;;5088603;28;20082;-75
2022/01/02 07:36:39;;;;;;;5.32;2.85;;;;;;;;;;5073804;28;20077;-77
2022/01/02 07:39:06;;;;;;;9.90;3.15;;;;;;;;;;5090596;28;20042;-76
2022/01/02 07:41:32;;;;;;;10.02;3.17;;;;;;;;;;5073727;28;20040;-76
2022/01/02 07:44:00;;;;;;;9.38;2.90;;;;;;;;;;5073945;28;20043;-76
2022/01/02 07:46:26;;;;;;;5.57;2.88;;;;;;;;;;5073827;28;20048;-76
2022/01/02 07:48:52;;;;;;;6.57;4.35;;;;;;;;;;5090667;28;20048;-79
2022/01/02 07:51:18;;;;;;;9.13;3.55;;;;;;;;;;5090507;28;20048;-77
2022/01/02 07:53:44;;;;;;;8.80;3.00;;;;;;;;;;5073502;28;20048;-76
2022/01/02 07:56:10;;;;;;;8.25;3.58;;;;;;;;;;5073603;28;20044;-77
2022/01/02 07:58:36;;;;;;;8.25;3.05;;;;;;;;;;5090549;28;20047;-78
2022/01/02 08:01:02;;;;;;;4.85;3.00;;;;;;;;;;5090383;28;20032;-77
2022/01/02 08:03:28;;;;;;;8.15;4.30;;;;;;;;;;5090282;28;20040;-76
2022/01/02 08:05:54;;;;;;;8.75;3.80;;;;;;;;;;5107137;28;20483;-75
2022/01/02 08:08:20;;;;;;;9.85;3.78;;;;;;;;;;5110802;28;20463;-74
2022/01/02 08:10:46;;;;;;;10.60;3.75;;;;;;;;;;5093375;28;20465;-75
2022/01/02 08:13:12;;;;;;;7.03;3.22;;;;;;;;;;5094627;28;20083;-76
2022/01/02 08:15:38;;;;;;;7.35;3.22;;;;;;;;;;5114937;28;20054;-78
2022/01/02 08:18:04;;;;;;;11.10;4.10;;;;;;;;;;5098209;28;20117;-75
2022/01/02 08:20:30;;;;;;;12.43;3.67;;;;;;;;;;5097738;28;20043;-76
2022/01/02 08:22:57;;;;;;;14.75;4.45;;;;;;;;;;5114476;28;20045;-76
2022/01/02 08:25:24;;;;;;;8.40;3.63;;;;;;;;;;5114855;28;20047;-76
2022/01/02 08:27:50;;;;;;;8.43;3.05;;;;;;;;;;5097685;28;20039;-76
2022/01/02 08:30:16;;;;;;;8.07;3.72;;;;;;;;;;5114553;28;20058;-76
2022/01/02 08:32:42;;;;;;;10.93;3.78;;;;;;;;;;5097643;28;20054;-75
2022/01/02 08:35:08;;;;;;;9.57;3.83;;;;;;;;;;5112362;28;20554;-76
2022/01/02 08:37:34;;;;;;;11.27;3.90;;;;;;;;;;5113850;28;20043;-74
2022/01/02 08:40:00;;;;;;;7.47;3.58;;;;;;;;;;5113384;28;20391;-77
2022/01/02 08:42:26;;;;;;;9.38;3.55;;;;;;;;;;5114225;28;20434;-74
2022/01/02 08:44:52;;;;;;;11.60;4.10;;;;;;;;;;5097537;28;20042;-76
2022/01/02 08:47:17;;;;;;;12.20;5.15;;;;;;;;;;5097423;28;20035;-76
2022/01/02 08:49:44;;;;;;;9.35;4.38;;;;;;;;;;5114437;28;20074;-77
2022/01/02 08:52:10;;;;;;;4.55;3.28;;;;;;;;;;5087598;28;20511;-77
2022/01/02 08:54:38;;;;;;;7.75;3.72;;;;;;;;;;5077445;28;20060;-76
2022/01/02 08:57:04;;;;;;;10.40;4.28;;;;;;;;;;5078661;28;20070;-75
2022/01/02 08:59:30;;;;;;;8.38;3.33;;;;;;;;;;5079559;28;20156;-76
2022/01/02 09:01:57;;;;;;;9.75;3.47;;;;;;;;;;5080318;28;20589;-78
2022/01/02 09:04:23;;;;;;;8.60;3.90;;;;;;;;;;5079929;28;20039;-74
2022/01/02 09:06:49;;;;;;;8.35;3.63;;;;;;;;;;5077689;28;20071;-75
2022/01/02 09:09:15;;;;;;;6.68;3.60;;;;;;;;;;5078916;28;20035;-74
2022/01/02 09:11:41;;;;;;;8.52;3.78;;;;;;;;;;5077852;28;20075;-74
2022/01/02 09:14:07;;;;;;;6.57;3.90;;;;;;;;;;5077844;28;20044;-75
2022/01/02 09:16:34;;;;;;;7.95;3.78;;;;;;;;;;5079135;28;20477;-74
2022/01/02 09:19:00;;;;;;;8.85;3.30;;;;;;;;;;5079766;28;20050;-76
2022/01/02 09:21:26;;;;;;;8.00;4.05;;;;;;;;;;5078209;28;20530;-75
2022/01/02 09:23:52;;;;;;;8.10;3.83;;;;;;;;;;5071976;28;20036;-75
2022/01/02 09:26:18;;;;;;;7.03;3.85;;;;;;;;;;5068551;28;20047;-75
2022/01/02 09:28:44;;;;;;;5.75;3.60;;;;;;;;;;5070616;28;20097;-73
2022/01/02 09:31:10;;;;;;;9.65;4.38;;;;;;;;;;5078505;28;20092;-76
2022/01/02 09:33:36;;;;;;;8.45;3.67;;;;;;;;;;5078589;28;20047;-74
2022/01/02 09:36:02;;;;;;;8.23;3.85;;;;;;;;;;5079293;28;20041;-75
2022/01/02 09:38:27;;;;;;;8.93;3.92;;;;;;;;;;5078039;28;20066;-75
2022/01/02 09:40:53;;;;;;;7.88;3.63;;;;;;;;;;5078714;28;20075;-75
2022/01/02 09:43:20;;;;;;;11.15;3.83;;;;;;;;;;5077130;28;20036;-72
2022/01/02 09:45:46;;;;;;;7.43;3.88;;;;;;;;;;5077580;28;20480;-73
2022/01/02 09:48:12;;;;;;;6.03;3.80;;;;;;;;;;5076095;28;20477;-75
2022/01/02 09:50:39;;;;;;;5.82;3.33;;;;;;;;;;5078806;28;20135;-75
2022/01/02 09:53:06;;;;;;;5.55;3.42;;;;;;;;;;5077607;28;20040;-74
2022/01/02 09:55:32;;;;;;;5.18;3.50;;;;;;;;;;5076776;28;20122;-74
2022/01/02 09:57:59;;;;;;;8.75;4.15;;;;;;;;;;5077979;28;20434;-75
2022/01/02 10:00:26;;;;;;;7.53;3.85;;;;;;;;;;5077313;28;20036;-73
2022/01/02 10:02:56;;;;;;;9.00;3.90;;;;;;;;;;5076597;28;20082;-75
2022/01/02 10:05:24;;;;;;;6.60;4.07;;;;;;;;;;5085334;28;20043;-76
2022/01/02 10:07:51;;;;;;;8.88;3.85;;;;;;;;;;5076865;28;20052;-77
2022/01/02 10:10:16;;;;;;;6.10;3.75;;;;;;;;;;5077044;28;20101;-76
2022/01/02 10:12:42;;;;;;;10.15;4.07;;;;;;;;;;5068848;28;20056;-77
2022/01/02 10:15:08;;;;;;;6.47;4.18;;;;;;;;;;5068282;28;20040;-75
2022/01/02 10:17:50;;;;;;;8.25;4.07;;;;;;;;;;5068497;28;20067;-77
2022/01/02 10:20:16;;;;;;;6.70;4.05;;;;;;;;;;5068294;28;20191;-76
2022/01/02 10:23:01;;;;;;;7.18;4.25;;;;;;;;;;5068119;28;20459;-76
2022/01/02 10:25:39;;;;;;;8.90;3.83;;;;;;;;;;5068050;28;20456;-76
2022/01/02 10:28:18;;;;;;;6.25;4.57;;;;;;;;;;5068312;28;20050;-74
2022/01/02 10:30:48;;;;;;;5.45;3.83;;;;;;;;;;5068261;28;20051;-79
2022/01/02 10:33:14;;;;;;;9.18;4.80;;;;;;;;;;5068103;28;20045;-74
2022/01/02 10:35:43;;;;;;;6.75;4.47;;;;;;;;;;5082810;28;20055;-76
2022/01/02 10:38:16;;;;;;;13.02;4.20;;;;;;;;;;5086543;28;20036;-74
2022/01/02 10:40:42;;;;;;;8.35;5.00;;;;;;;;;;5087904;28;20488;-76
2022/01/02 10:43:12;;;;;;;6.60;4.57;;;;;;;;;;5070932;28;20054;-75
2022/01/02 10:45:48;;;;;;;12.55;5.53;;;;;;;;;;5088223;28;20135;-76
2022/01/02 10:48:15;;;;;;;9.88;5.20;;;;;;;;;;5087761;28;20093;-75
2022/01/02 10:50:58;;;;;;;9.77;4.35;;;;;;;;;;5070938;28;20052;-75
2022/01/02 10:53:24;;;;;;;10.32;5.65;;;;;;;;;;5071143;28;20048;-75
2022/01/02 10:55:50;;;;;;;9.27;5.18;;;;;;;;;;5088140;28;20042;-76
2022/01/02 10:58:17;;;;;;;8.65;5.00;;;;;;;;;;5088102;28;20040;-75
2022/01/02 11:00:43;;;;;;;7.97;4.35;;;;;;;;;;5070787;28;20043;-74
2022/01/02 11:03:09;;;;;;;9.63;4.53;;;;;;;;;;5071048;28;20047;-75
2022/01/02 11:05:36;;;;;;;9.23;5.07;;;;;;;;;;5069192;28;20085;-74
2022/01/02 11:08:03;;;;;;;13.13;4.80;;;;;;;;;;5087505;28;20052;-75
2022/01/02 11:10:33;;;;;;;7.03;4.38;;;;;;;;;;5070478;28;20063;-77
2022/01/02 11:13:00;;;;;;;7.50;5.03;;;;;;;;;;5087808;28;20048;-77
2022/01/02 11:15:27;;;;;;;9.57;5.32;;;;;;;;;;5087621;28;20051;-75
2022/01/02 11:17:53;;;;;;;6.93;4.50;;;;;;;;;;5070497;28;20420;-77
2022/01/02 11:20:19;;;;;;;7.90;5.30;;;;;;;;;;5087651;28;20044;-76
2022/01/02 11:22:50;;;;;;;9.40;5.18;;;;;;;;;;5070634;28;20104;-75
2022/01/02 11:25:28;;;;;;;7.43;4.70;;;;;;;;;;5069945;28;20124;-76
2022/01/02 11:27:58;;;;;;;13.45;5.18;;;;;;;;;;5070574;28;20046;-77
2022/01/02 11:30:31;;;;;;;10.45;4.57;;;;;;;;;;5070276;28;20039;-75
2022/01/02 11:33:14;;;;;;;6.22;4.22;;;;;;;;;;5070362;28;20500;-76
2022/01/02 11:35:44;;;;;;;11.10;5.05;;;;;;;;;;5068155;28;20150;-75
2022/01/02 11:38:11;;;;;;;10.27;4.68;;;;;;;;;;5069641;28;20045;-76
2022/01/02 11:40:49;;;;;;;8.60;5.70;;;;;;;;;;5086559;28;20082;-76
2022/01/02 11:43:34;;;;;;;8.85;4.95;;;;;;;;;;5070149;28;20496;-77
2022/01/02 11:46:15;;;;;;;15.05;6.35;;;;;;;;;;5070168;28;20474;-76
2022/01/02 11:48:41;;;;;;;8.57;4.90;;;;;;;;;;5086405;28;20048;-76
2022/01/02 11:51:07;;;;;;;8.23;4.93;;;;;;;;;;5070107;28;20376;-75
2022/01/02 11:53:36;;;;;;;8.02;4.18;;;;;;;;;;5069804;28;20082;-77
2022/01/02 11:56:03;;;;;;;8.93;5.05;;;;;;;;;;5103694;28;20032;-76
2022/01/02 11:58:38;;;;;;;12.63;5.03;;;;;;;;;;5069529;28;20044;-77
2022/01/02 12:01:05;;;;;;;10.60;4.50;;;;;;;;;;5069740;28;20483;-76
2022/01/02 12:03:46;;;;;;;6.53;4.32;;;;;;;;;;5086618;28;20047;-74
2022/01/02 12:06:11;;;;;;;;;;;;;;;;;;5069960;28;20068;-76
2022/01/02 12:08:37;;;;;;;5.43;4.07;;;;;;;;;;5086589;28;19928;-74
2022/01/02 12:11:23;;;;;;;8.30;4.53;;;;;;;;;;5069439;28;20086;-74
2022/01/02 12:14:02;;;;;;;8.13;4.18;;;;;;;;;;5085940;28;20048;-77
2022/01/02 12:16:35;;;;;;;10.85;4.40;;;;;;;;;;5069549;28;20056;-75
2022/01/02 12:19:02;;;;;;;10.30;3.63;;;;;;;;;;5069777;28;20052;-76
2022/01/02 12:21:28;;;;;;;7.70;3.92;;;;;;;;;;5069836;28;20707;-76
2022/01/02 12:23:55;;;;;;;7.57;3.13;;;;;;;;;;5070220;28;20036;-73
2022/01/02 12:26:22;;;;;;;7.88;2.80;;;;;;;;;;5069018;28;20048;-73
2022/01/02 12:28:57;;;;;;;4.75;2.70;;;;;;;;;;5069289;28;20132;-76
2022/01/02 12:31:25;;;;;;;9.48;3.08;;;;;;;;;;5086233;28;20075;-76
2022/01/02 12:33:51;;;;;;;9.60;2.95;;;;;;;;;;5069497;28;20123;-74
2022/01/02 12:36:17;;;;;;;6.25;2.50;;;;;;;;;;5069291;28;20689;-75
2022/01/02 12:38:47;;;;;;;8.43;2.83;;;;;;;;;;5086608;28;20127;-74
2022/01/02 12:41:13;;;;;;;5.32;2.20;;;;;;;;;;5086797;28;20048;-76
2022/01/02 12:43:41;;;;;;;8.73;2.92;;;;;;;;;;5086567;28;20047;-77
2022/01/02 12:46:07;;;;;;;7.35;2.35;;;;;;;;;;5069412;28;20139;-76
2022/01/02 12:48:33;;;;;;;11.18;3.10;;;;;;;;;;5086364;28;20562;-77
2022/01/02 12:51:09;;;;;;;8.18;2.70;;;;;;;;;;5069565;28;20454;-77
2022/01/02 12:53:35;;;;;;;10.43;2.47;;;;;;;;;;5069329;28;20106;-74
2022/01/02 12:56:01;;;;;;;11.60;2.47;;;;;;;;;;5069498;28;20533;-76
2022/01/02 12:58:27;;;;;;;6.07;2.40;;;;;;;;;;5069393;28;20042;-76
2022/01/02 13:00:54;;;;;;;8.30;2.33;;;;;;;;;;5086855;28;20047;-76
2022/01/02 13:03:20;;;;;;;10.77;2.50;;;;;;;;;;5089900;28;20040;-76
2022/01/02 13:05:49;;;;;;;6.65;2.20;;;;;;;;;;5089814;28;20132;-76
2022/01/02 13:08:22;;;;;;;9.73;2.45;;;;;;;;;;5090023;28;20460;-75
2022/01/02 13:10:48;;;;;;;7.88;2.72;;;;;;;;;;5089538;28;20424;-76
2022/01/02 13:13:26;;;;;;;4.60;1.60;;;;;;;;;;5072435;28;20046;-76
2022/01/02 13:15:52;;;;;;;16.63;3.05;;;;;;;;;;5089734;28;20543;-79
2022/01/02 13:18:18;;;;;;;7.07;1.88;;;;;;;;;;5072608;28;20423;-77
2022/01/02 13:20:46;;;;;;;5.43;2.03;;;;;;;;;;5090095;28;20036;-77
2022/01/02 13:23:12;;;;;;;11.35;2.30;;;;;;;;;;5089742;28;20051;-79
2022/01/02 13:25:40;;;;;;;7.85;1.83;;;;;;;;;;5071957;28;20048;-78
2022/01/02 13:28:10;;;;;;;8.02;1.88;;;;;;;;;;5089501;28;20059;-77
2022/01/02 13:30:39;;;;;;;11.00;2.38;;;;;;;;;;5072845;28;20044;-79
2022/01/02 13:33:26;;;;;;;9.52;2.20;;;;;;;;;;5089339;28;20075;-76
2022/01/02 13:35:55;;;;;;;9.93;1.70;;;;;;;;;;5072654;28;20052;-77
2022/01/02 13:38:21;;;;;;;9.10;1.58;;;;;;;;;;5072183;28;20039;-77
2022/01/02 13:40:47;;;;;;;8.35;1.98;;;;;;;;;;5072302;28;20047;-75
2022/01/02 13:43:13;;;;;;;5.25;1.83;;;;;;;;;;5078668;28;20036;-77
2022/01/02 13:45:43;;;;;;;9.70;1.90;;;;;;;;;;5078535;28;20125;-75
2022/01/02 13:48:11;;;;;;;5.00;1.65;;;;;;;;;;5079601;28;20043;-76
2022/01/02 13:50:40;;;;;;;7.28;1.67;;;;;;;;;;5079097;28;20504;-76
2022/01/02 13:53:17;;;;;;;7.55;1.55;;;;;;;;;;5080391;28;20438;-76
2022/01/02 13:55:45;;;;;;;6.93;1.30;;;;;;;;;;5079758;28;20595;-73
2022/01/02 13:58:21;;;;;;;5.03;1.27;;;;;;;;;;5081202;28;20193;-79
2022/01/02 14:01:10;;;;;;;7.13;1.60;;;;;;;;;;5088797;28;20320;-77
2022/01/02 14:03:38;;;;;;;5.47;1.35;;;;;;;;;;5121962;27;20487;-76
2022/01/02 14:06:04;;;;;;;6.10;1.65;;;;;;;;;;5093944;28;20051;-75
2022/01/02 14:08:30;;;;;;;6.75;1.25;;;;;;;;;;5079650;28;20035;-77
2022/01/02 14:11:10;;;;;;;4.22;1.25;;;;;;;;;;5074607;28;20048;-77
2022/01/02 14:14:46;;;;;;;6.55;1.60;;;;;;;;;;5069226;28;20041;-78
2022/01/02 14:19:02;;;;;;;8.32;1.73;;;;;;;;;;5094371;28;20048;-76
2022/01/02 14:21:28;;;;;;;6.70;1.17;;;;;;;;;;5081157;28;20044;-78
2022/01/02 14:23:57;;;;;;;5.95;1.65;;;;;;;;;;5080734;28;20491;-78
2022/01/02 14:26:23;;;;;;;2.53;1.00;;;;;;;;;;5086529;28;20547;-75
2022/01/02 14:28:56;;;;;;;8.15;1.88;;;;;;;;;;5063246;28;20040;-77
2022/01/02 14:31:22;;;;;;;6.05;1.27;;;;;;;;;;5083909;28;20396;-80
2022/01/02 14:33:48;;;;;;;3.15;0.75;;;;;;;;;;5077438;28;20047;-77
2022/01/02 14:36:14;;;;;;;4.85;1.50;;;;;;;;;;5069849;28;20361;-78
2022/01/02 14:38:40;;;;;;;2.40;0.70;;;;;;;;;;5084667;28;20123;-79
2022/01/02 14:41:06;;;;;;;7.35;1.02;;;;;;;;;;5083457;28;20488;-78
2022/01/02 14:43:32;;;;;;;4.95;1.02;;;;;;;;;;5065451;28;20586;-76
2022/01/02 14:45:58;;;;;;;6.80;1.65;;;;;;;;;;5079336;28;20408;-80
2022/01/02 14:48:25;;;;;;;6.32;1.42;;;;;;;;;;5083279;28;20388;-79
2022/01/02 14:50:51;;;;;;;3.17;1.00;;;;;;;;;;5103063;28;20048;-78
2022/01/02 14:53:17;;;;;;;4.50;1.42;;;;;;;;;;5076611;28;20040;-78
2022/01/02 14:55:43;;;;;;;4.35;1.30;;;;;;;;;;5082599;28;20055;-80